sensor_id;sensor_type;location;lat;lon;timestamp;pressure;altitude;pressure_sealevel;temperature;humidity
56038;BME280;41907;47.848;9.000;2022-08-27T00:01:20;95616.31;;;18.45;100.00
56038;BME280;41907;47.848;9.000;2022-08-27T00:03:46;95617.44;;;18.44;100.00
56038;BME280;41907;47.848;9.000;2022-08-27T00:06:13;95612.09;;;18.47;100.00
56038;BME280;41907;47.848;9.000;2022-08-27T00:08:41;95610.91;;;18.45;100.00
56038;BME280;41907;47.848;9.000;2022-08-27T00:11:08;95616.31;;;18.45;100.00
56038;BME280;41907;47.848;9.000;2022-08-27T00:13:33;95610.53;;;18.46;100.00
56038;BME280;41907;47.848;9.000;2022-08-27T00:15:58;95616.66;;;18.43;100.00
56038;BME280;41907;47.848;9.000;2022-08-27T00:18:24;95604.78;;;18.48;100.00
56038;BME280;41907;47.848;9.000;2022-08-27T00:20:50;95609.41;;;18.47;100.00
56038;BME280;41907;47.848;9.000;2022-08-27T00:23:15;95598.84;;;18.39;100.00
56038;BME280;41907;47.848;9.000;2022-08-27T00:25:41;95602.19;;;18.32;100.00
56038;BME280;41907;47.848;9.000;2022-08-27T00:28:06;95606.41;;;18.30;100.00
56038;BME280;41907;47.848;9.000;2022-08-27T00:30:31;95607.13;;;18.27;100.00
56038;BME280;41907;47.848;9.000;2022-08-27T00:32:57;95606.34;;;18.26;100.00
56038;BME280;41907;47.848;9.000;2022-08-27T00:35:22;95603.28;;;18.28;100.00
56038;BME280;41907;47.848;9.000;2022-08-27T00:37:48;95599.81;;;18.27;100.00
56038;BME280;41907;47.848;9.000;2022-08-27T00:40:17;95601.88;;;18.14;100.00
56038;BME280;41907;47.848;9.000;2022-08-27T00:42:42;95602.00;;;18.21;100.00
56038;BME280;41907;47.848;9.000;2022-08-27T00:45:11;95595.91;;;18.25;100.00
56038;BME280;41907;47.848;9.000;2022-08-27T00:47:43;95596.25;;;18.23;100.00
56038;BME280;41907;47.848;9.000;2022-08-27T00:50:17;95595.78;;;18.17;100.00
56038;BME280;41907;47.848;9.000;2022-08-27T00:52:50;95598.03;;;18.15;100.00
56038;BME280;41907;47.848;9.000;2022-08-27T00:55:20;95600.63;;;18.08;100.00
56038;BME280;41907;47.848;9.000;2022-08-27T00:57:54;95592.22;;;18.13;100.00
56038;BME280;41907;47.848;9.000;2022-08-27T01:00:21;95585.44;;;18.23;100.00
56038;BME280;41907;47.848;9.000;2022-08-27T01:02:47;95590.13;;;18.26;100.00
56038;BME280;41907;47.848;9.000;2022-08-27T01:05:16;95587.50;;;18.30;100.00
56038;BME280;41907;47.848;9.000;2022-08-27T01:07:48;95578.25;;;18.31;100.00
56038;BME280;41907;47.848;9.000;2022-08-27T01:10:17;95576.72;;;18.30;100.00
56038;BME280;41907;47.848;9.000;2022-08-27T01:12:44;95575.19;;;18.32;100.00
56038;BME280;41907;47.848;9.000;2022-08-27T01:15:15;95580.19;;;18.30;100.00
56038;BME280;41907;47.848;9.000;2022-08-27T01:17:42;95569.88;;;18.36;100.00
56038;BME280;41907;47.848;9.000;2022-08-27T01:20:14;95574.47;;;18.35;100.00
56038;BME280;41907;47.848;9.000;2022-08-27T01:23:01;95568.28;;;18.35;100.00
56038;BME280;41907;47.848;9.000;2022-08-27T01:25:29;95567.50;;;18.34;100.00
56038;BME280;41907;47.848;9.000;2022-08-27T01:27:58;95576.63;;;18.26;100.00
56038;BME280;41907;47.848;9.000;2022-08-27T01:30:25;95576.16;;;18.20;100.00
56038;BME280;41907;47.848;9.000;2022-08-27T01:32:51;95577.34;;;18.23;100.00
56038;BME280;41907;47.848;9.000;2022-08-27T01:35:17;95583.41;;;18.16;100.00
56038;BME280;41907;47.848;9.000;2022-08-27T01:37:46;95585.41;;;18.19;100.00
56038;BME280;41907;47.848;9.000;2022-08-27T01:40:14;95580.41;;;18.21;100.00
56038;BME280;41907;47.848;9.000;2022-08-27T01:42:45;95586.13;;;18.16;100.00
56038;BME280;41907;47.848;9.000;2022-08-27T01:45:37;95577.94;;;18.13;100.00
56038;BME280;41907;47.848;9.000;2022-08-27T01:48:02;95586.00;;;18.09;100.00
56038;BME280;41907;47.848;9.000;2022-08-27T01:50:31;95582.00;;;18.03;100.00
56038;BME280;41907;47.848;9.000;2022-08-27T01:52:56;95578.97;;;18.05;100.00
56038;BME280;41907;47.848;9.000;2022-08-27T01:55:25;95583.66;;;18.08;100.00
56038;BME280;41907;47.848;9.000;2022-08-27T01:57:52;95572.06;;;18.07;100.00
56038;BME280;41907;47.848;9.000;2022-08-27T02:00:26;95577.22;;;18.16;100.00
56038;BME280;41907;47.848;9.000;2022-08-27T02:02:53;95571.91;;;18.19;100.00
56038;BME280;41907;47.848;9.000;2022-08-27T02:05:19;95572.94;;;18.11;100.00
56038;BME280;41907;47.848;9.000;2022-08-27T02:07:45;95566.59;;;18.04;100.00
56038;BME280;41907;47.848;9.000;2022-08-27T02:10:14;95563.09;;;18.00;100.00
56038;BME280;41907;47.848;9.000;2022-08-27T02:12:41;95567.69;;;17.99;100.00
56038;BME280;41907;47.848;9.000;2022-08-27T02:15:07;95564.13;;;17.95;100.00
56038;BME280;41907;47.848;9.000;2022-08-27T02:17:32;95568.53;;;18.03;100.00
56038;BME280;41907;47.848;9.000;2022-08-27T02:19:58;95568.72;;;18.14;100.00
56038;BME280;41907;47.848;9.000;2022-08-27T02:22:25;95562.19;;;18.15;100.00
56038;BME280;41907;47.848;9.000;2022-08-27T02:24:50;95561.81;;;18.16;100.00
56038;BME280;41907;47.848;9.000;2022-08-27T02:27:15;95559.53;;;18.18;100.00
56038;BME280;41907;47.848;9.000;2022-08-27T02:29:42;95560.69;;;18.17;100.00
56038;BME280;41907;47.848;9.000;2022-08-27T02:32:07;95562.53;;;18.13;100.00
56038;BME280;41907;47.848;9.000;2022-08-27T02:34:33;95561.81;;;18.16;100.00
56038;BME280;41907;47.848;9.000;2022-08-27T02:36:58;95554.16;;;18.18;100.00
56038;BME280;41907;47.848;9.000;2022-08-27T02:39:24;95550.66;;;18.18;100.00
56038;BME280;41907;47.848;9.000;2022-08-27T02:41:49;95556.50;;;18.20;100.00
56038;BME280;41907;47.848;9.000;2022-08-27T02:44:15;95549.88;;;18.17;100.00
56038;BME280;41907;47.848;9.000;2022-08-27T02:46:41;95557.28;;;18.20;100.00
56038;BME280;41907;47.848;9.000;2022-08-27T02:49:08;95560.38;;;18.22;100.00
56038;BME280;41907;47.848;9.000;2022-08-27T02:51:34;95560.75;;;18.21;100.00
56038;BME280;41907;47.848;9.000;2022-08-27T02:54:00;95559.97;;;18.20;100.00
56038;BME280;41907;47.848;9.000;2022-08-27T02:56:26;95555.28;;;18.17;100.00
56038;BME280;41907;47.848;9.000;2022-08-27T02:58:52;95554.84;;;18.15;100.00
56038;BME280;41907;47.848;9.000;2022-08-27T03:01:18;95564.09;;;18.14;100.00
56038;BME280;41907;47.848;9.000;2022-08-27T03:03:43;95562.97;;;18.15;100.00
56038;BME280;41907;47.848;9.000;2022-08-27T03:06:09;95554.44;;;18.13;100.00
56038;BME280;41907;47.848;9.000;2022-08-27T03:08:34;95547.00;;;18.07;100.00
56038;BME280;41907;47.848;9.000;2022-08-27T03:11:00;95543.06;;;18.01;100.00
56038;BME280;41907;47.848;9.000;2022-08-27T03:13:26;95550.41;;;18.04;100.00
56038;BME280;41907;47.848;9.000;2022-08-27T03:15:52;95553.50;;;18.02;100.00
56038;BME280;41907;47.848;9.000;2022-08-27T03:18:18;95548.84;;;18.03;100.00
56038;BME280;41907;47.848;9.000;2022-08-27T03:20:54;95553.50;;;18.02;100.00
56038;BME280;41907;47.848;9.000;2022-08-27T03:23:23;95539.56;;;18.00;100.00
56038;BME280;41907;47.848;9.000;2022-08-27T03:25:55;95538.38;;;17.98;100.00
56038;BME280;41907;47.848;9.000;2022-08-27T03:28:23;95544.13;;;17.96;100.00
56038;BME280;41907;47.848;9.000;2022-08-27T03:30:55;95547.16;;;17.95;100.00
56038;BME280;41907;47.848;9.000;2022-08-27T03:33:24;95537.50;;;17.94;100.00
56038;BME280;41907;47.848;9.000;2022-08-27T03:35:50;95540.63;;;17.96;100.00
56038;BME280;41907;47.848;9.000;2022-08-27T03:38:16;95543.34;;;17.96;100.00
56038;BME280;41907;47.848;9.000;2022-08-27T03:40:42;95545.22;;;17.92;100.00
56038;BME280;41907;47.848;9.000;2022-08-27T03:43:11;95546.34;;;17.91;100.00
56038;BME280;41907;47.848;9.000;2022-08-27T03:45:36;95543.91;;;17.85;100.00
56038;BME280;41907;47.848;9.000;2022-08-27T03:48:03;95536.34;;;17.91;100.00
56038;BME280;41907;47.848;9.000;2022-08-27T03:50:30;95535.47;;;17.87;100.00
56038;BME280;41907;47.848;9.000;2022-08-27T03:52:56;95538.25;;;17.91;100.00
56038;BME280;41907;47.848;9.000;2022-08-27T03:55:21;95531.34;;;17.93;100.00
56038;BME280;41907;47.848;9.000;2022-08-27T03:57:47;95531.34;;;17.93;100.00
56038;BME280;41907;47.848;9.000;2022-08-27T04:00:13;95532.84;;;17.91;100.00
56038;BME280;41907;47.848;9.000;2022-08-27T04:02:40;95523.53;;;17.88;100.00
56038;BME280;41907;47.848;9.000;2022-08-27T04:05:11;95531.28;;;17.90;100.00
56038;BME280;41907;47.848;9.000;2022-08-27T04:07:38;95527.38;;;17.87;100.00
56038;BME280;41907;47.848;9.000;2022-08-27T04:10:05;95531.22;;;17.86;100.00
56038;BME280;41907;47.848;9.000;2022-08-27T04:12:30;95525.81;;;17.86;100.00
56038;BME280;41907;47.848;9.000;2022-08-27T04:14:56;95520.00;;;17.84;100.00
56038;BME280;41907;47.848;9.000;2022-08-27T04:17:21;95522.34;;;17.85;100.00
56038;BME280;41907;47.848;9.000;2022-08-27T04:19:47;95522.34;;;17.85;100.00
56038;BME280;41907;47.848;9.000;2022-08-27T04:22:12;95523.91;;;17.87;100.00
56038;BME280;41907;47.848;9.000;2022-08-27T04:24:39;95520.41;;;17.86;100.00
56038;BME280;41907;47.848;9.000;2022-08-27T04:27:05;95514.66;;;17.88;100.00
56038;BME280;41907;47.848;9.000;2022-08-27T04:29:30;95520.06;;;17.88;100.00
56038;BME280;41907;47.848;9.000;2022-08-27T04:31:56;95518.94;;;17.89;100.00
56038;BME280;41907;47.848;9.000;2022-08-27T04:34:22;95514.31;;;17.89;100.00
56038;BME280;41907;47.848;9.000;2022-08-27T04:36:47;95516.59;;;17.87;100.00
56038;BME280;41907;47.848;9.000;2022-08-27T04:39:14;95515.09;;;17.90;100.00
56038;BME280;41907;47.848;9.000;2022-08-27T04:41:39;95525.09;;;17.89;100.00
56038;BME280;41907;47.848;9.000;2022-08-27T04:44:08;95518.94;;;17.89;100.00
56038;BME280;41907;47.848;9.000;2022-08-27T04:46:36;95518.16;;;17.88;100.00
56038;BME280;41907;47.848;9.000;2022-08-27T04:49:05;95522.41;;;17.89;100.00
56038;BME280;41907;47.848;9.000;2022-08-27T04:51:31;95529.72;;;17.89;100.00
56038;BME280;41907;47.848;9.000;2022-08-27T04:53:57;95522.06;;;17.91;100.00
56038;BME280;41907;47.848;9.000;2022-08-27T04:56:23;95520.41;;;17.86;100.00
56038;BME280;41907;47.848;9.000;2022-08-27T04:58:50;95527.38;;;17.87;100.00
56038;BME280;41907;47.848;9.000;2022-08-27T05:01:17;95529.00;;;17.92;100.00
56038;BME280;41907;47.848;9.000;2022-08-27T05:03:43;95532.84;;;17.91;100.00
56038;BME280;41907;47.848;9.000;2022-08-27T05:06:09;95537.47;;;17.90;100.00
56038;BME280;41907;47.848;9.000;2022-08-27T05:08:34;95538.69;;;17.93;100.00
56038;BME280;41907;47.848;9.000;2022-08-27T05:11:00;95532.84;;;17.91;100.00
56038;BME280;41907;47.848;9.000;2022-08-27T05:13:27;95540.22;;;17.94;100.00
56038;BME280;41907;47.848;9.000;2022-08-27T05:16:04;95534.88;;;17.97;100.00
56038;BME280;41907;47.848;9.000;2022-08-27T05:18:30;95532.91;;;17.94;100.00
56038;BME280;41907;47.848;9.000;2022-08-27T05:20:56;95539.44;;;17.93;100.00
56038;BME280;41907;47.848;9.000;2022-08-27T05:23:22;95540.94;;;17.91;100.00
56038;BME280;41907;47.848;9.000;2022-08-27T05:25:50;95548.38;;;17.97;100.00
56038;BME280;41907;47.848;9.000;2022-08-27T05:28:17;95538.38;;;17.98;100.00
56038;BME280;41907;47.848;9.000;2022-08-27T05:30:46;95534.53;;;17.99;100.00
56038;BME280;41907;47.848;9.000;2022-08-27T05:33:14;95538.72;;;17.96;100.00
56038;BME280;41907;47.848;9.000;2022-08-27T05:35:40;95535.31;;;17.99;100.00
56038;BME280;41907;47.848;9.000;2022-08-27T05:38:06;95541.53;;;18.03;100.00
56038;BME280;41907;47.848;9.000;2022-08-27T05:40:32;95538.91;;;18.07;100.00
56038;BME280;41907;47.848;9.000;2022-08-27T05:42:58;95546.69;;;18.12;100.00
56038;BME280;41907;47.848;9.000;2022-08-27T05:45:23;95543.63;;;18.13;100.00
56038;BME280;41907;47.848;9.000;2022-08-27T05:47:48;95537.09;;;18.14;100.00
56038;BME280;41907;47.848;9.000;2022-08-27T05:50:14;95536.81;;;18.19;100.00
56038;BME280;41907;47.848;9.000;2022-08-27T05:52:40;95539.63;;;18.27;100.00
56038;BME280;41907;47.848;9.000;2022-08-27T05:55:06;95539.31;;;18.32;100.00
56038;BME280;41907;47.848;9.000;2022-08-27T05:57:33;95542.78;;;18.32;100.00
56038;BME280;41907;47.848;9.000;2022-08-27T05:59:58;95546.69;;;18.35;100.00
56038;BME280;41907;47.848;9.000;2022-08-27T06:02:42;95537.81;;;18.34;100.00
56038;BME280;41907;47.848;9.000;2022-08-27T06:05:09;95539.06;;;18.40;100.00
56038;BME280;41907;47.848;9.000;2022-08-27T06:07:35;95539.84;;;18.41;100.00
56038;BME280;41907;47.848;9.000;2022-08-27T06:10:01;95544.25;;;18.49;100.00
56038;BME280;41907;47.848;9.000;2022-08-27T06:12:26;95543.13;;;18.53;100.00
56038;BME280;41907;47.848;9.000;2022-08-27T06:14:52;95545.19;;;18.60;100.00
56038;BME280;41907;47.848;9.000;2022-08-27T06:17:17;95542.97;;;18.66;100.00
56038;BME280;41907;47.848;9.000;2022-08-27T06:19:42;95545.78;;;18.73;100.00
56038;BME280;41907;47.848;9.000;2022-08-27T06:22:10;95546.66;;;18.80;100.00
56038;BME280;41907;47.848;9.000;2022-08-27T06:24:36;95539.81;;;18.86;100.00
56038;BME280;41907;47.848;9.000;2022-08-27T06:27:03;95542.25;;;18.95;100.00
56038;BME280;41907;47.848;9.000;2022-08-27T06:29:28;95542.78;;;19.08;100.00
56038;BME280;41907;47.848;9.000;2022-08-27T06:31:54;95551.38;;;19.13;100.00
56038;BME280;41907;47.848;9.000;2022-08-27T06:34:20;95547.53;;;19.18;100.00
56038;BME280;41907;47.848;9.000;2022-08-27T06:36:45;95549.16;;;19.22;100.00
56038;BME280;41907;47.848;9.000;2022-08-27T06:39:11;95546.88;;;19.24;100.00
56038;BME280;41907;47.848;9.000;2022-08-27T06:41:41;95548.84;;;19.27;100.00
56038;BME280;41907;47.848;9.000;2022-08-27T06:44:07;95555.84;;;19.32;100.00
56038;BME280;41907;47.848;9.000;2022-08-27T06:46:32;95559.78;;;19.38;100.00
56038;BME280;41907;47.848;9.000;2022-08-27T06:48:59;95549.44;;;19.44;100.00
56038;BME280;41907;47.848;9.000;2022-08-27T06:51:31;95556.91;;;19.54;100.00
56038;BME280;41907;47.848;9.000;2022-08-27T06:54:00;95549.97;;;19.56;100.00
56038;BME280;41907;47.848;9.000;2022-08-27T06:56:26;95554.69;;;19.63;100.00
56038;BME280;41907;47.848;9.000;2022-08-27T06:58:57;95547.75;;;19.62;100.00
56038;BME280;41907;47.848;9.000;2022-08-27T07:01:26;95554.31;;;19.64;100.00
56038;BME280;41907;47.848;9.000;2022-08-27T07:03:56;95557.31;;;19.56;100.00
56038;BME280;41907;47.848;9.000;2022-08-27T07:06:23;95560.06;;;19.59;100.00
56038;BME280;41907;47.848;9.000;2022-08-27T07:08:49;95566.28;;;19.63;100.00
56038;BME280;41907;47.848;9.000;2022-08-27T07:11:15;95564.06;;;19.73;100.00
56038;BME280;41907;47.848;9.000;2022-08-27T07:13:41;95557.19;;;19.79;100.00
56038;BME280;41907;47.848;9.000;2022-08-27T07:16:09;95559.56;;;19.84;100.00
56038;BME280;41907;47.848;9.000;2022-08-27T07:18:35;95556.53;;;19.89;100.00
56038;BME280;41907;47.848;9.000;2022-08-27T07:21:01;95557.81;;;20.02;100.00
56038;BME280;41907;47.848;9.000;2022-08-27T07:23:31;95567.66;;;20.17;100.00
56038;BME280;41907;47.848;9.000;2022-08-27T07:25:57;95564.97;;;20.21;100.00
56038;BME280;41907;47.848;9.000;2022-08-27T07:28:23;95568.50;;;20.25;100.00
56038;BME280;41907;47.848;9.000;2022-08-27T07:30:49;95566.56;;;20.29;100.00
56038;BME280;41907;47.848;9.000;2022-08-27T07:33:14;95560.78;;;20.30;100.00
56038;BME280;41907;47.848;9.000;2022-08-27T07:35:40;95572.47;;;20.34;100.00
56038;BME280;41907;47.848;9.000;2022-08-27T07:38:05;95571.25;;;20.32;100.00
56038;BME280;41907;47.848;9.000;2022-08-27T07:40:31;95568.63;;;20.39;100.00
56038;BME280;41907;47.848;9.000;2022-08-27T07:42:56;95574.88;;;20.43;100.00
56038;BME280;41907;47.848;9.000;2022-08-27T07:45:46;95576.09;;;20.53;100.00
56038;BME280;41907;47.848;9.000;2022-08-27T07:48:13;95576.19;;;20.63;100.00
56038;BME280;41907;47.848;9.000;2022-08-27T07:50:40;95580.56;;;20.75;100.00
56038;BME280;41907;47.848;9.000;2022-08-27T07:53:05;95578.63;;;20.75;100.00
56038;BME280;41907;47.848;9.000;2022-08-27T07:55:34;95576.28;;;20.77;100.00
56038;BME280;41907;47.848;9.000;2022-08-27T07:58:00;95580.19;;;20.80;100.00
56038;BME280;41907;47.848;9.000;2022-08-27T08:00:26;95586.03;;;20.86;100.00
56038;BME280;41907;47.848;9.000;2022-08-27T08:02:52;95586.38;;;20.80;100.00
56038;BME280;41907;47.848;9.000;2022-08-27T08:05:18;95587.16;;;20.81;100.00
56038;BME280;41907;47.848;9.000;2022-08-27T08:07:43;95589.50;;;20.83;100.00
56038;BME280;41907;47.848;9.000;2022-08-27T08:10:09;95591.41;;;20.75;100.00
56038;BME280;41907;47.848;9.000;2022-08-27T08:12:37;95597.22;;;20.80;100.00
56038;BME280;41907;47.848;9.000;2022-08-27T08:15:05;95589.13;;;20.84;100.00
56038;BME280;41907;47.848;9.000;2022-08-27T08:17:32;95587.59;;;20.87;100.00
56038;BME280;41907;47.848;9.000;2022-08-27T08:19:58;95596.16;;;20.96;100.00
56038;BME280;41907;47.848;9.000;2022-08-27T08:22:24;95593.91;;;21.05;100.00
56038;BME280;41907;47.848;9.000;2022-08-27T08:24:49;95597.47;;;21.12;100.00
56038;BME280;41907;47.848;9.000;2022-08-27T08:27:14;95597.94;;;21.22;100.00
56038;BME280;41907;47.848;9.000;2022-08-27T08:29:40;95595.59;;;21.20;100.00
56038;BME280;41907;47.848;9.000;2022-08-27T08:32:06;95598.38;;;21.31;100.00
56038;BME280;41907;47.848;9.000;2022-08-27T08:34:32;95607.34;;;21.42;100.00
56038;BME280;41907;47.848;9.000;2022-08-27T08:36:59;95615.88;;;21.44;100.00
56038;BME280;41907;47.848;9.000;2022-08-27T08:39:25;95615.00;;;21.26;100.00
56038;BME280;41907;47.848;9.000;2022-08-27T08:41:53;95604.44;;;21.13;100.00
56038;BME280;41907;47.848;9.000;2022-08-27T08:44:31;95605.31;;;21.28;100.00
56038;BME280;41907;47.848;9.000;2022-08-27T08:49:46;95613.97;;;21.48;100.00
56038;BME280;41907;47.848;9.000;2022-08-27T08:54:55;95610.69;;;21.97;100.00
56038;BME280;41907;47.848;9.000;2022-08-27T08:57:30;95608.41;;;22.06;100.00
56038;BME280;41907;47.848;9.000;2022-08-27T09:00:08;95611.88;;;22.10;100.00
56038;BME280;41907;47.848;9.000;2022-08-27T09:02:38;95620.44;;;22.05;100.00
56038;BME280;41907;47.848;9.000;2022-08-27T09:05:06;95620.34;;;21.95;100.00
56038;BME280;41907;47.848;9.000;2022-08-27T09:07:37;95612.97;;;21.88;100.00
56038;BME280;41907;47.848;9.000;2022-08-27T09:10:33;95620.28;;;21.77;100.00
56038;BME280;41907;47.848;9.000;2022-08-27T09:13:01;95617.56;;;21.73;100.00
56038;BME280;41907;47.848;9.000;2022-08-27T09:15:33;95620.66;;;21.75;100.00
56038;BME280;41907;47.848;9.000;2022-08-27T09:18:07;95626.88;;;21.76;100.00
56038;BME280;41907;47.848;9.000;2022-08-27T09:20:33;95615.66;;;21.84;100.00
56038;BME280;41907;47.848;9.000;2022-08-27T09:23:10;95619.19;;;21.92;100.00
56038;BME280;41907;47.848;9.000;2022-08-27T09:25:39;95623.06;;;21.95;100.00
56038;BME280;41907;47.848;9.000;2022-08-27T09:28:20;95617.69;;;21.98;100.00
56038;BME280;41907;47.848;9.000;2022-08-27T09:31:11;95622.22;;;21.76;100.00
56038;BME280;41907;47.848;9.000;2022-08-27T09:33:37;95622.19;;;21.66;100.00
56038;BME280;41907;47.848;9.000;2022-08-27T09:36:09;95623.66;;;21.49;100.00
56038;BME280;41907;47.848;9.000;2022-08-27T09:38:36;95618.94;;;21.39;100.00
56038;BME280;41907;47.848;9.000;2022-08-27T09:41:15;95619.28;;;21.30;100.00
56038;BME280;41907;47.848;9.000;2022-08-27T09:43:41;95613.84;;;21.27;100.00
56038;BME280;41907;47.848;9.000;2022-08-27T09:46:19;95613.88;;;21.30;100.00
56038;BME280;41907;47.848;9.000;2022-08-27T09:48:45;95631.78;;;21.45;100.00
56038;BME280;41907;47.848;9.000;2022-08-27T09:51:13;95618.66;;;21.58;100.00
56038;BME280;41907;47.848;9.000;2022-08-27T09:53:54;95621.38;;;21.62;100.00
56038;BME280;41907;47.848;9.000;2022-08-27T09:59:05;95632.16;;;21.44;100.00
56038;BME280;41907;47.848;9.000;2022-08-27T10:01:33;95623.94;;;21.30;100.00
56038;BME280;41907;47.848;9.000;2022-08-27T10:04:09;95628.44;;;21.15;100.00
56038;BME280;41907;47.848;9.000;2022-08-27T10:06:37;95625.75;;;21.15;100.00
56038;BME280;41907;47.848;9.000;2022-08-27T10:11:42;95614.44;;;21.06;100.00
56038;BME280;41907;47.848;9.000;2022-08-27T10:14:15;95621.44;;;21.07;100.00
56038;BME280;41907;47.848;9.000;2022-08-27T10:30:20;95627.78;;;20.74;100.00
56038;BME280;41907;47.848;9.000;2022-08-27T10:38:49;95629.25;;;20.64;100.00
56038;BME280;41907;47.848;9.000;2022-08-27T10:41:26;95629.56;;;20.59;100.00
56038;BME280;41907;47.848;9.000;2022-08-27T10:46:54;95623.75;;;20.57;100.00
56038;BME280;41907;47.848;9.000;2022-08-27T10:52:11;95614.75;;;20.46;100.00
56038;BME280;41907;47.848;9.000;2022-08-27T10:55:18;95620.97;;;20.47;100.00
56038;BME280;41907;47.848;9.000;2022-08-27T11:00:19;95614.53;;;20.25;100.00
56038;BME280;41907;47.848;9.000;2022-08-27T11:02:56;95615.31;;;20.25;100.00
56038;BME280;41907;47.848;9.000;2022-08-27T11:05:35;95617.28;;;20.28;100.00
56038;BME280;41907;47.848;9.000;2022-08-27T11:10:38;95612.63;;;20.29;100.00
56038;BME280;41907;47.848;9.000;2022-08-27T11:15:48;95613.75;;;20.24;100.00
56038;BME280;41907;47.848;9.000;2022-08-27T11:18:32;95616.09;;;20.29;100.00
56038;BME280;41907;47.848;9.000;2022-08-27T11:21:04;95615.56;;;20.13;100.00
56038;BME280;41907;47.848;9.000;2022-08-27T11:23:55;95625.00;;;20.30;100.00
56038;BME280;41907;47.848;9.000;2022-08-27T11:26:23;95615.72;;;20.31;100.00
56038;BME280;41907;47.848;9.000;2022-08-27T11:28:54;95611.44;;;20.26;100.00
56038;BME280;41907;47.848;9.000;2022-08-27T11:34:16;95618.81;;;20.66;100.00
56038;BME280;41907;47.848;9.000;2022-08-27T11:42:35;95604.56;;;21.35;100.00
56038;BME280;41907;47.848;9.000;2022-08-27T11:47:32;95590.44;;;21.80;100.00
56038;BME280;41907;47.848;9.000;2022-08-27T11:50:04;95594.34;;;21.79;100.00
56038;BME280;41907;47.848;9.000;2022-08-27T11:52:38;95592.78;;;21.85;100.00
56038;BME280;41907;47.848;9.000;2022-08-27T11:57:45;95585.91;;;22.06;100.00
56038;BME280;41907;47.848;9.000;2022-08-27T12:02:36;95584.41;;;22.61;99.97
56038;BME280;41907;47.848;9.000;2022-08-27T12:05:19;95581.31;;;22.74;96.89
56038;BME280;41907;47.848;9.000;2022-08-27T12:07:49;95577.75;;;23.23;98.98
56038;BME280;41907;47.848;9.000;2022-08-27T12:10:23;95577.19;;;23.81;97.56
56038;BME280;41907;47.848;9.000;2022-08-27T12:13:18;95571.13;;;24.29;92.96
56038;BME280;41907;47.848;9.000;2022-08-27T12:15:55;95577.59;;;24.49;89.11
56038;BME280;41907;47.848;9.000;2022-08-27T12:26:27;95574.88;;;24.53;85.15
56038;BME280;41907;47.848;9.000;2022-08-27T12:29:34;95575.47;;;24.16;85.98
56038;BME280;41907;47.848;9.000;2022-08-27T12:32:30;95573.06;;;24.32;84.54
56038;BME280;41907;47.848;9.000;2022-08-27T12:37:30;95571.38;;;24.48;85.92
56038;BME280;41907;47.848;9.000;2022-08-27T12:40:01;95566.22;;;24.61;86.47
56038;BME280;41907;47.848;9.000;2022-08-27T12:42:29;95567.41;;;24.60;84.07
56038;BME280;41907;47.848;9.000;2022-08-27T12:44:56;95565.78;;;24.66;84.63
56038;BME280;41907;47.848;9.000;2022-08-27T12:47:22;95559.63;;;24.55;85.91
56038;BME280;41907;47.848;9.000;2022-08-27T12:49:52;95559.09;;;24.19;84.42
56038;BME280;41907;47.848;9.000;2022-08-27T13:03:54;95553.44;;;24.51;82.40
56038;BME280;41907;47.848;9.000;2022-08-27T13:06:31;95561.00;;;24.81;81.24
56038;BME280;41907;47.848;9.000;2022-08-27T13:09:06;95553.53;;;24.85;75.53
56038;BME280;41907;47.848;9.000;2022-08-27T13:14:13;95555.66;;;24.63;76.23
56038;BME280;41907;47.848;9.000;2022-08-27T13:16:45;95556.88;;;25.07;75.49
56038;BME280;41907;47.848;9.000;2022-08-27T13:19:21;95548.78;;;24.96;72.08
56038;BME280;41907;47.848;9.000;2022-08-27T13:21:49;95555.06;;;25.31;77.09
56038;BME280;41907;47.848;9.000;2022-08-27T13:24:19;95552.00;;;25.59;76.09
56038;BME280;41907;47.848;9.000;2022-08-27T13:26:48;95547.91;;;25.44;76.65
56038;BME280;41907;47.848;9.000;2022-08-27T13:29:17;95547.78;;;25.54;73.65
56038;BME280;41907;47.848;9.000;2022-08-27T13:31:43;95545.81;;;24.76;75.57
56038;BME280;41907;47.848;9.000;2022-08-27T13:34:13;95549.75;;;24.17;78.33
56038;BME280;41907;47.848;9.000;2022-08-27T13:36:55;95546.53;;;24.36;78.32
56038;BME280;41907;47.848;9.000;2022-08-27T13:39:22;95554.97;;;24.56;79.98
56038;BME280;41907;47.848;9.000;2022-08-27T13:41:48;95551.91;;;24.46;75.05
56038;BME280;41907;47.848;9.000;2022-08-27T13:44:26;95557.19;;;24.09;75.73
56038;BME280;41907;47.848;9.000;2022-08-27T13:47:03;95552.28;;;23.83;80.47
56038;BME280;41907;47.848;9.000;2022-08-27T13:49:31;95555.50;;;23.63;80.98
56038;BME280;41907;47.848;9.000;2022-08-27T13:54:48;95543.94;;;23.24;85.28
56038;BME280;41907;47.848;9.000;2022-08-27T13:57:26;95543.56;;;23.22;85.71
56038;BME280;41907;47.848;9.000;2022-08-27T13:59:52;95547.81;;;23.26;86.58
56038;BME280;41907;47.848;9.000;2022-08-27T14:02:21;95558.72;;;23.12;86.59
56038;BME280;41907;47.848;9.000;2022-08-27T14:05:10;95554.13;;;22.88;84.60
56038;BME280;41907;47.848;9.000;2022-08-27T14:08:00;95567.31;;;22.43;82.75
56038;BME280;41907;47.848;9.000;2022-08-27T14:10:31;95569.25;;;22.32;85.29
56038;BME280;41907;47.848;9.000;2022-08-27T14:13:18;95569.59;;;22.06;86.64
56038;BME280;41907;47.848;9.000;2022-08-27T14:15:55;95572.25;;;21.91;89.25
56038;BME280;41907;47.848;9.000;2022-08-27T14:18:28;95585.41;;;21.89;91.63
56038;BME280;41907;47.848;9.000;2022-08-27T14:20:55;95582.22;;;21.63;93.74
56038;BME280;41907;47.848;9.000;2022-08-27T14:23:21;95574.72;;;21.28;90.97
56038;BME280;41907;47.848;9.000;2022-08-27T14:25:48;95576.44;;;20.99;91.06
56038;BME280;41907;47.848;9.000;2022-08-27T14:28:14;95586.94;;;21.04;88.54
56038;BME280;41907;47.848;9.000;2022-08-27T14:30:39;95589.31;;;21.12;90.13